Somonauk, IL (60552)

2:54 AM CDT on August 28, 2015 (GMT -0500)
Rural--2.75 mi WSW Sandwich, IL | | Change Station
CLOSE
Current Station
Personal Weather Station
Location: Sandwich, IL
Elevation: 698 ft
Nearby Weather Stations

Elev 698 ft 41.62 °N, 88.65 °W | Updated 35 seconds ago

Clear
Clear
57.7 °F
Feels Like 57.7 °F
N
2.0
Wind Variable Wind from East
Gusts 4.0 mph

Today
High -- | Low -- °F
--% Chance of Precip.
Yesterday
High -- | Low -- °F
Precip. -- in
6:16 AM 7:34 PM
Waxing Gibbous, 97% visible
Pressure 30.12 in
Visibility 4.0 miles
Clouds Clear
Dew Point 56 °F
Humidity 93%
Rainfall 0.00 in
Snow Depth Not available.
UV 0 out of 12
Pollen 10.10 out of 12
Air Quality Not available.
Flu Activity Not available.
METAR KARR 280752Z AUTO 10003KT 4SM BR CLR 13/12 A3012 RMK AO2 SLP198 T01330117
Pressure 30.12 in
Visibility 4.0 miles
Clouds Clear
Dew Point 56 °F
Humidity 93%
Rainfall 0.00 in
Snow Depth Not available.
UV 0 out of 12
Pollen 10.10 out of 12
Air Quality Not available.
Flu Activity Not available.
METAR KARR 280752Z AUTO 10003KT 4SM BR CLR 13/12 A3012 RMK AO2 SLP198 T01330117

10-Day Weather Forecast

×

Almanac

Astronomy

Aug. 28, 2015 Rise Set
Actual Time
Civil Twilight
Nautical Twilight
Astronomical Twilight
Moon
Length of Visible Light
Length of Day
Tomorrow will be .
, % of the Moon is Illuminated

Today's Extremes

State Highs State Lows

Community

WunderPhotos

Upload Photos

1,850,348 photos uploaded!

WunderBlogs® & News

Nearby

Air Quality

  Air Quality AQ Index Pollutant
Not available.

Snow Depth

Station Depth Elevation

Earthquake Activity

City Distance Mag. Time & Date
Minimum magnitude displayed is 2.5.

Coastal Water Temperatures

Place Temperature

Stations

Nearby Weather Stations

Station Location Temp. Windchill Dew Point Humidity Wind Precip. Elev Updated Type